This is the latest recevied weather packets stored in our database for station/object VA3XLC. If no packets are shown the sender has not sent any weather packets the latest 10 day(s).
| Time | Temp. | Humidity | Pressure | Rain* | Wind** | Luminosity | Snow |
|---|---|---|---|---|---|---|---|
| 1778097184 | 8.33° C | 49% | 979.3 hPa | - | - | 275 W/m² | - |
| 1778094782 | 8.33° C | 50% | 979.1 hPa | - | - | 403 W/m² | - |
| 1778092979 | 8.33° C | 50% | 979.2 hPa | - | - | 592 W/m² | - |
| 1778092079 | 8.89° C | 51% | 978.9 hPa | - | - | 254 W/m² | - |
| 1778091778 | 8.89° C | 50% | 978.8 hPa | - | - | 257 W/m² | - |
| 1778091177 | 9.44° C | 49% | 978.6 hPa | - | - | 301 W/m² | - |
| 1778088132 | 10° C | 52% | 978.3 hPa | - | - | 389 W/m² | - |
| 1778087210 | 10° C | 52% | 978.2 hPa | - | - | 371 W/m² | - |
| 1778086910 | 10° C | 53% | 978.3 hPa | - | - | 524 W/m² | - |
| 1778081742 | 9.44° C | 67% | 978.2 hPa | - | - | 925 W/m² | - |
| 1778079318 | 8.89° C | 73% | 977.7 hPa | - | - | 409 W/m² | - |
| 1778079018 | 8.89° C | 72% | 977.6 hPa | - | - | 610 W/m² | - |
| 1778076574 | 7.22° C | 82% | 977.1 hPa | - | - | 305 W/m² | - |
| 1778075052 | 6.11° C | 84% | 977.1 hPa | - | - | 194 W/m² | - |
| 1778073230 | 6.11° C | 85% | 977.1 hPa | - | - | 165 W/m² | - |
| 1778072930 | 6.11° C | 86% | 977 hPa | - | - | 174 W/m² | - |
| 1778072629 | 5.56° C | 85% | 976.8 hPa | - | - | 152 W/m² | - |
| 1778072328 | 5.56° C | 85% | 976.8 hPa | - | - | 135 W/m² | - |
| 1778071106 | 5.56° C | 86% | 976.5 hPa | - | - | 89 W/m² | - |
| 1778069284 | 7.22° C | 86% | 976.5 hPa | - | - | 36 W/m² | - |
| 1778068984 | 7.22° C | 86% | 976.5 hPa | - | - | 33 W/m² | - |
| 1778064396 | 7.78° C | 86% | 975.6 hPa | - | - | 8 W/m² | - |
| 1778063474 | 7.78° C | 87% | 975.3 hPa | - | - | 6 W/m² | - |
| 1778062552 | 7.78° C | 90% | 975.1 hPa | - | - | 2 W/m² | - |
| 1778061050 | 7.78° C | 92% | 975.3 hPa | - | - | 0 W/m² | - |
* Rain since midnight (hover to see other rain measurements)
** Current wind speed in m/s (hover to see current wind gust speed)